createdAt,value
2018-07-01T00:00:09.419Z,99.88
2018-07-01T00:01:09.417Z,99.99
2018-07-01T00:02:09.385Z,99.99
2018-07-01T00:03:09.407Z,99.68
2018-07-01T00:04:09.420Z,99.99
2018-07-01T00:05:09.436Z,99.99
2018-07-01T00:06:09.452Z,99.99
2018-07-01T00:07:09.524Z,99.99
2018-07-01T00:09:09.505Z,99.99
2018-07-01T00:10:09.520Z,99.99
2018-07-01T00:11:09.542Z,99.99
2018-07-01T00:12:09.568Z,99.99
2018-07-01T00:13:09.624Z,99.99
2018-07-01T00:14:09.614Z,99.99
2018-07-01T00:15:09.603Z,99.99
2018-07-01T00:16:09.623Z,99.99
2018-07-01T00:17:09.640Z,99.99
2018-07-01T00:18:09.653Z,99.99
2018-07-01T00:19:09.723Z,99.99
2018-07-01T00:20:09.748Z,99.99
2018-07-01T00:21:09.707Z,99.99
2018-07-01T00:22:09.730Z,99.99
2018-07-01T00:23:09.737Z,99.99
2018-07-01T00:24:09.753Z,99.99
2018-07-01T00:25:09.820Z,99.99
2018-07-01T00:26:09.795Z,99.99
2018-07-01T00:27:09.805Z,99.99
2018-07-01T00:28:09.826Z,99.99
2018-07-01T00:29:09.838Z,99.99
2018-07-01T00:30:09.851Z,99.99
2018-07-01T00:31:09.936Z,99.99
2018-07-01T00:32:09.890Z,99.99
2018-07-01T00:33:09.900Z,99.99
2018-07-01T00:34:09.923Z,99.99
2018-07-01T00:35:09.937Z,99.99
2018-07-01T00:36:09.958Z,99.99
2018-07-01T00:37:10.026Z,99.99
2018-07-01T00:38:09.987Z,99.99
2018-07-01T00:39:10.027Z,99.99
2018-07-01T00:40:10.020Z,99.99
2018-07-01T00:41:10.042Z,99.99
2018-07-01T00:42:10.058Z,99.99
2018-07-01T00:43:10.126Z,99.99
2018-07-01T00:44:10.091Z,99.99
2018-07-01T00:45:10.114Z,99.99
2018-07-01T00:46:10.119Z,99.99
2018-07-01T00:47:10.141Z,99.99
2018-07-01T00:48:10.154Z,99.99
2018-07-01T00:49:10.227Z,99.99
2018-07-01T00:50:10.191Z,99.99
2018-07-01T00:51:10.252Z,99.99
2018-07-01T00:52:10.226Z,99.99
2018-07-01T00:53:10.235Z,99.99
2018-07-01T00:54:10.252Z,99.99
2018-07-01T00:55:10.326Z,99.68
2018-07-01T00:56:10.293Z,99.92
2018-07-01T00:57:10.303Z,99.59
2018-07-01T00:58:10.325Z,99.99
2018-07-01T00:59:10.342Z,99.88
2018-07-01T01:00:10.353Z,99.59
2018-07-01T01:01:10.421Z,99.99
2018-07-01T01:02:10.394Z,99.68
2018-07-01T01:03:10.405Z,99.49
2018-07-01T01:04:10.423Z,99.49
2018-07-01T01:05:10.439Z,99.68
2018-07-01T01:06:10.462Z,99.99
2018-07-01T01:07:10.527Z,99.99
2018-07-01T01:08:10.494Z,99.88
2018-07-01T01:09:10.506Z,99.88
2018-07-01T01:10:10.594Z,99.88
2018-07-01T01:11:10.542Z,99.88
2018-07-01T01:12:10.563Z,99.68
2018-07-01T01:13:10.630Z,99.98
2018-07-01T01:14:10.596Z,99.99
2018-07-01T01:15:10.613Z,99.78
2018-07-01T01:16:10.642Z,99.78
2018-07-01T01:17:10.643Z,99.99
2018-07-01T01:18:10.714Z,99.99
2018-07-01T01:19:10.678Z,99.88
2018-07-01T01:20:10.699Z,99.99
2018-07-01T01:21:10.715Z,99.99
2018-07-01T01:22:10.728Z,99.99
2018-07-01T01:23:10.750Z,99.99
2018-07-01T01:24:10.813Z,99.99
2018-07-01T01:25:10.779Z,99.99
2018-07-01T01:26:10.799Z,99.99
2018-07-01T01:27:10.820Z,99.99
2018-07-01T01:28:10.829Z,99.99
2018-07-01T01:29:10.913Z,99.92
2018-07-01T01:30:10.914Z,99.98
2018-07-01T01:31:10.886Z,99.99
2018-07-01T01:32:10.902Z,99.92
2018-07-01T01:33:10.918Z,99.88
2018-07-01T01:34:10.931Z,99.99
2018-07-01T01:35:11.021Z,99.99
2018-07-01T01:36:11.021Z,99.99
2018-07-01T01:37:10.989Z,99.99
2018-07-01T01:38:11.000Z,99.99
2018-07-01T01:39:11.017Z,99.99
2018-07-01T01:40:11.040Z,99.99
2018-07-01T01:41:11.049Z,99.99
2018-07-01T01:42:11.123Z,99.83
2018-07-01T01:43:11.089Z,99.83
2018-07-01T01:44:11.101Z,99.99
2018-07-01T01:45:11.123Z,99.99
2018-07-01T01:46:11.135Z,99.63
2018-07-01T01:47:11.160Z,99.73
2018-07-01T01:48:11.223Z,99.73
2018-07-01T01:49:11.184Z,99.92
2018-07-01T01:50:11.203Z,99.99
2018-07-01T01:51:11.228Z,99.99
2018-07-01T01:52:11.238Z,99.99
2018-07-01T01:53:11.261Z,99.99
2018-07-01T01:54:11.322Z,99.83
2018-07-01T01:55:11.293Z,99.73
2018-07-01T01:56:11.306Z,99.92
2018-07-01T01:57:11.322Z,99.99
2018-07-01T01:58:11.347Z,99.73
2018-07-01T01:59:11.360Z,99.54
2018-07-01T02:00:11.464Z,99.25
2018-07-01T02:01:11.388Z,99.63
2018-07-01T02:02:11.411Z,99.83
2018-07-01T02:03:11.424Z,99.73
2018-07-01T02:04:11.448Z,99.63
2018-07-01T02:05:11.461Z,99.54
2018-07-01T02:06:11.601Z,99.63
2018-07-01T02:07:11.495Z,99.83
2018-07-01T02:08:11.512Z,99.63
2018-07-01T02:09:11.528Z,99.83
2018-07-01T02:10:11.542Z,99.73
2018-07-01T02:11:11.564Z,99.92
2018-07-01T02:12:11.659Z,99.73
2018-07-01T02:13:11.597Z,99.92
2018-07-01T02:14:11.612Z,99.99
2018-07-01T02:15:11.630Z,99.92
2018-07-01T02:16:11.648Z,99.83
2018-07-01T02:17:11.658Z,98.86
2018-07-01T02:18:11.747Z,99.06
2018-07-01T02:19:11.697Z,98.86
2018-07-01T02:20:11.716Z,99.25
2018-07-01T02:21:11.726Z,99.25
2018-07-01T02:22:11.747Z,99.06
2018-07-01T02:23:11.772Z,99.15
2018-07-01T02:24:11.832Z,98.58
2018-07-01T02:25:11.801Z,98.58
2018-07-01T02:26:11.816Z,99.35
2018-07-01T02:27:11.828Z,99.15
2018-07-01T02:28:11.849Z,99.25
2018-07-01T02:29:11.865Z,98.77
2018-07-01T02:30:11.933Z,98.96
2018-07-01T02:31:11.898Z,98.96
2018-07-01T02:32:11.918Z,98.77
2018-07-01T02:33:11.928Z,98.86
2018-07-01T02:34:11.955Z,98.48
2018-07-01T02:35:12.003Z,98.68
2018-07-01T02:36:12.038Z,98.68
2018-07-01T02:37:12.080Z,99.44
2018-07-01T02:38:12.019Z,98.96
2018-07-01T02:39:12.036Z,99.15
2018-07-01T02:40:12.051Z,99.25
2018-07-01T02:41:12.075Z,99.25
2018-07-01T02:42:12.138Z,99.99
2018-07-01T02:43:12.112Z,99.44
2018-07-01T02:44:12.121Z,99.73
2018-07-01T02:45:12.135Z,99.92
2018-07-01T02:46:12.156Z,99.99
2018-07-01T02:47:12.176Z,99.44
2018-07-01T02:48:12.235Z,99.83
2018-07-01T02:49:12.206Z,99.99
2018-07-01T02:50:12.219Z,99.44
2018-07-01T02:51:12.241Z,99.63
2018-07-01T02:52:12.252Z,99.44
2018-07-01T02:53:12.269Z,99.63
2018-07-01T02:54:12.335Z,99.63
2018-07-01T02:55:12.302Z,99.63
2018-07-01T02:56:12.357Z,99.44
2018-07-01T02:57:12.337Z,99.99
2018-07-01T02:58:12.352Z,99.54
2018-07-01T02:59:12.380Z,99.54
2018-07-01T03:00:12.386Z,99.83
2018-07-01T03:01:12.408Z,99.63
2018-07-01T03:02:12.494Z,99.44
2018-07-01T03:03:12.437Z,99.25
2018-07-01T03:04:12.455Z,99.25
2018-07-01T03:05:12.471Z,99.25
2018-07-01T03:07:12.605Z,99.15
2018-07-01T03:08:12.538Z,98.48
2018-07-01T03:09:12.541Z,98.39
2018-07-01T03:10:12.560Z,99.25
2018-07-01T03:11:12.577Z,98.86
2018-07-01T03:12:12.591Z,98.29
2018-07-01T03:13:12.606Z,98.58
2018-07-01T03:14:12.626Z,98.77
2018-07-01T03:15:12.640Z,98.77
2018-07-01T03:16:12.656Z,99.15
2018-07-01T03:17:12.680Z,99.25
2018-07-01T03:18:12.701Z,99.25
2018-07-01T03:19:12.713Z,99.15
2018-07-01T03:20:12.739Z,98.86
2018-07-01T03:21:12.744Z,98.77
2018-07-01T03:22:12.761Z,98.77
2018-07-01T03:23:12.780Z,98.63
2018-07-01T03:24:12.794Z,98.96
2018-07-01T03:25:12.816Z,98.96
2018-07-01T03:26:12.824Z,98.58
2018-07-01T03:27:12.844Z,98.58
2018-07-01T03:28:12.864Z,98.58
2018-07-01T03:29:12.877Z,98.58
2018-07-01T03:30:12.898Z,98.86
2018-07-01T03:31:12.917Z,98.77
2018-07-01T03:32:12.933Z,98.34
2018-07-01T03:33:12.969Z,98.29
2018-07-01T03:34:12.967Z,98.29
2018-07-01T03:35:12.983Z,98.29
2018-07-01T03:36:12.995Z,98.86
2018-07-01T03:37:13.013Z,98.86
2018-07-01T03:38:13.037Z,98.86
2018-07-01T03:39:13.048Z,98.77
2018-07-01T03:40:13.068Z,99.15
2018-07-01T03:41:13.082Z,98.96
2018-07-01T03:42:13.099Z,98.58
2018-07-01T03:43:13.115Z,98.77
2018-07-01T03:44:13.138Z,99.15
2018-07-01T03:45:13.150Z,98.96
2018-07-01T03:46:13.172Z,99.35
2018-07-01T03:47:13.190Z,99.44
2018-07-01T03:48:13.204Z,99.25
2018-07-01T03:49:13.229Z,99.35
2018-07-01T03:50:13.280Z,99.15
2018-07-01T03:51:13.257Z,99.06
2018-07-01T03:52:13.272Z,99.15
2018-07-01T03:53:13.286Z,99.25
2018-07-01T03:54:13.311Z,99.06
2018-07-01T03:55:13.322Z,99.44
2018-07-01T03:56:13.344Z,99.06
2018-07-01T03:57:13.379Z,99.15
2018-07-01T03:58:13.371Z,98.96
2018-07-01T03:59:13.393Z,99.25
2018-07-01T04:00:13.406Z,99.01
2018-07-01T04:01:13.429Z,99.40
2018-07-01T04:02:13.444Z,99.68
2018-07-01T04:03:13.459Z,99.78
2018-07-01T04:04:13.480Z,99.78
2018-07-01T04:05:13.495Z,99.78
2018-07-01T04:06:13.508Z,99.99
2018-07-01T04:07:13.531Z,99.78
2018-07-01T04:08:13.544Z,99.99
2018-07-01T04:09:13.562Z,99.78
2018-07-01T04:10:13.582Z,99.87
2018-07-01T04:11:13.592Z,99.87
2018-07-01T04:12:13.608Z,99.99
2018-07-01T04:13:13.629Z,99.78
2018-07-01T04:14:13.645Z,99.87
2018-07-01T04:15:13.663Z,99.99
2018-07-01T04:16:13.680Z,99.58
2018-07-01T04:17:13.696Z,99.87
2018-07-01T04:18:13.709Z,99.99
2018-07-01T04:19:13.727Z,99.78
2018-07-01T04:20:13.742Z,99.78
2018-07-01T04:21:13.764Z,99.87
2018-07-01T04:22:13.775Z,99.97
2018-07-01T04:23:13.796Z,99.87
2018-07-01T04:24:13.814Z,99.78
2018-07-01T04:25:13.887Z,99.78
2018-07-01T04:26:13.843Z,99.97
2018-07-01T04:27:13.858Z,99.97
2018-07-01T04:28:13.888Z,99.99
2018-07-01T04:29:13.895Z,99.99
2018-07-01T04:30:13.917Z,99.99
2018-07-01T04:31:13.946Z,99.99
2018-07-01T04:32:13.948Z,99.99
2018-07-01T04:33:13.965Z,99.99
2018-07-01T04:34:13.989Z,99.99
2018-07-01T04:35:13.995Z,99.99
2018-07-01T04:36:14.010Z,99.99
2018-07-01T04:37:14.027Z,99.99
2018-07-01T04:38:14.043Z,99.99
2018-07-01T04:39:14.069Z,99.97
2018-07-01T04:40:14.081Z,99.99
2018-07-01T04:41:14.093Z,99.99
2018-07-01T04:42:14.125Z,99.99
2018-07-01T04:43:14.136Z,99.99
2018-07-01T04:44:14.148Z,99.97
2018-07-01T04:45:14.175Z,99.78
2018-07-01T04:46:14.183Z,99.99
2018-07-01T04:47:14.198Z,99.87
2018-07-01T04:48:14.211Z,99.87
2018-07-01T04:50:14.243Z,99.99
2018-07-01T04:51:14.266Z,99.30
2018-07-01T04:52:14.282Z,99.20
2018-07-01T04:53:14.304Z,99.20
2018-07-01T04:54:14.318Z,99.35
2018-07-01T04:55:14.407Z,99.35
2018-07-01T04:56:14.348Z,99.25
2018-07-01T04:57:14.364Z,99.44
2018-07-01T04:58:14.380Z,99.44
2018-07-01T04:59:14.408Z,99.63
2018-07-01T05:00:14.416Z,98.96
2018-07-01T05:01:14.434Z,99.44
2018-07-01T05:02:14.487Z,99.44
2018-07-01T05:03:14.479Z,98.86
2018-07-01T05:04:14.484Z,98.96
2018-07-01T05:05:14.495Z,99.06
2018-07-01T05:06:14.512Z,98.68
2018-07-01T05:07:14.531Z,98.58
2018-07-01T05:08:14.900Z,98.19
2018-07-01T05:09:14.561Z,98.58
2018-07-01T05:10:14.582Z,98.77
2018-07-01T05:11:14.595Z,98.72
2018-07-01T05:12:14.658Z,98.68
2018-07-01T05:13:14.634Z,98.53
2018-07-01T05:14:14.646Z,98.58
2018-07-01T05:15:14.668Z,98.39
2018-07-01T05:16:14.686Z,98.77
2018-07-01T05:17:14.707Z,98.48
2018-07-01T05:18:14.742Z,98.63
2018-07-01T05:19:14.736Z,98.19
2018-07-01T05:20:14.747Z,98.77
2018-07-01T05:21:14.767Z,98.58
2018-07-01T05:22:14.778Z,98.58
2018-07-01T05:23:14.803Z,98.19
2018-07-01T05:24:14.851Z,98.48
2018-07-01T05:25:14.836Z,98.96
2018-07-01T05:26:14.847Z,98.77
2018-07-01T05:27:14.865Z,98.96
2018-07-01T05:28:14.881Z,98.72
2018-07-01T05:29:14.899Z,99.06
2018-07-01T05:30:14.920Z,98.68
2018-07-01T05:31:14.933Z,98.39
2018-07-01T05:32:14.953Z,98.86
2018-07-01T05:33:14.964Z,98.77
2018-07-01T05:34:14.983Z,98.68
2018-07-01T05:35:14.999Z,98.72
2018-07-01T05:36:15.023Z,98.58
2018-07-01T05:37:15.048Z,98.63
2018-07-01T05:38:15.063Z,98.43
2018-07-01T05:39:15.067Z,98.63
2018-07-01T05:40:15.088Z,98.58
2018-07-01T05:41:15.100Z,98.53
2018-07-01T05:42:15.128Z,98.68
2018-07-01T05:43:15.161Z,98.58
2018-07-01T05:44:15.151Z,97.76
2018-07-01T05:45:15.173Z,97.91
2018-07-01T05:46:15.191Z,97.62
2018-07-01T05:47:15.203Z,97.52
2018-07-01T05:48:15.226Z,97.71
2018-07-01T05:49:15.250Z,97.33
2018-07-01T05:50:15.254Z,97.04
2018-07-01T05:51:15.274Z,97.33
2018-07-01T05:52:15.292Z,97.33
2018-07-01T05:53:15.310Z,97.04
2018-07-01T05:54:15.320Z,97.14
2018-07-01T05:55:15.346Z,97.24
2018-07-01T05:56:15.355Z,97.52
2018-07-01T05:57:15.445Z,97.62
2018-07-01T05:58:15.393Z,97.52
2018-07-01T05:59:15.416Z,97.24
2018-07-01T06:00:15.426Z,96.94
2018-07-01T06:01:15.445Z,96.94
2018-07-01T06:02:15.459Z,96.94
2018-07-01T06:03:15.476Z,96.56
2018-07-01T06:04:15.490Z,97.04
2018-07-01T06:05:15.507Z,96.85
2018-07-01T06:06:15.531Z,96.75
2018-07-01T06:07:15.542Z,96.47
2018-07-01T06:08:15.560Z,96.47
2018-07-01T06:09:15.579Z,97.04
2018-07-01T06:10:15.603Z,97.04
2018-07-01T06:11:15.610Z,96.75
2018-07-01T06:12:15.634Z,96.66
2018-07-01T06:13:15.649Z,96.47
2018-07-01T06:14:15.667Z,96.47
2018-07-01T06:15:15.692Z,96.66
2018-07-01T06:16:15.696Z,97.04
2018-07-01T06:17:15.713Z,96.75
2018-07-01T06:18:15.727Z,96.94
2018-07-01T06:19:15.750Z,97.04
2018-07-01T06:20:15.820Z,96.94
2018-07-01T06:21:15.778Z,96.94
2018-07-01T06:22:15.800Z,97.24
2018-07-01T06:23:15.819Z,96.94
2018-07-01T06:24:15.830Z,97.14
2018-07-01T06:25:15.852Z,96.66
2018-07-01T06:26:15.938Z,96.94
2018-07-01T06:27:15.892Z,96.94
2018-07-01T06:28:15.898Z,96.66
2018-07-01T06:29:15.913Z,97.04
2018-07-01T06:30:15.935Z,96.70
2018-07-01T06:31:15.954Z,97.04
2018-07-01T06:32:15.985Z,97.14
2018-07-01T06:33:15.992Z,96.94
2018-07-01T06:34:15.998Z,96.85
2018-07-01T06:35:16.017Z,96.66
2018-07-01T06:36:16.035Z,96.66
2018-07-01T06:37:16.051Z,96.66
2018-07-01T06:38:16.075Z,96.56
2018-07-01T06:39:16.092Z,96.51
2018-07-01T06:40:16.105Z,96.13
2018-07-01T06:41:16.122Z,96.32
2018-07-01T06:42:16.141Z,96.13
2018-07-01T06:43:16.157Z,96.22
2018-07-01T06:44:16.170Z,96.03
2018-07-01T06:45:16.186Z,95.94
2018-07-01T06:46:16.203Z,95.94
2018-07-01T06:47:16.226Z,96.03
2018-07-01T06:48:16.238Z,96.13
2018-07-01T06:49:16.255Z,96.13
2018-07-01T06:50:16.278Z,95.75
2018-07-01T06:51:16.294Z,95.26
2018-07-01T06:52:16.307Z,95.75
2018-07-01T06:53:16.322Z,95.65
2018-07-01T06:54:16.341Z,95.50
2018-07-01T06:55:16.359Z,95.12
2018-07-01T06:56:16.419Z,94.64
2018-07-01T06:57:16.396Z,94.68
2018-07-01T06:58:16.409Z,93.67
2018-07-01T06:59:16.428Z,92.80
2018-07-01T07:00:16.450Z,93.29
2018-07-01T07:01:16.465Z,92.66
2018-07-01T07:02:16.594Z,92.08
2018-07-01T07:03:16.503Z,91.16
2018-07-01T07:04:16.515Z,90.97
2018-07-01T07:05:16.532Z,91.12
2018-07-01T07:06:16.549Z,91.55
2018-07-01T07:07:16.570Z,91.99
2018-07-01T07:08:16.666Z,92.08
2018-07-01T07:09:16.602Z,91.94
2018-07-01T07:10:16.622Z,92.42
2018-07-01T07:11:16.645Z,92.61
2018-07-01T07:12:16.656Z,92.32
2018-07-01T07:13:16.681Z,92.42
2018-07-01T07:14:16.768Z,93.09
2018-07-01T07:15:16.714Z,93.57
2018-07-01T07:16:16.805Z,93.00
2018-07-01T07:17:16.750Z,92.80
2018-07-01T07:18:16.768Z,92.90
2018-07-01T07:19:16.785Z,92.52
2018-07-01T07:20:16.805Z,92.71
2018-07-01T07:21:16.837Z,92.80
2018-07-01T07:22:16.842Z,92.13
2018-07-01T07:23:16.859Z,93.00
2018-07-01T07:24:16.875Z,92.47
2018-07-01T07:25:16.892Z,92.22
2018-07-01T07:26:16.983Z,92.42
2018-07-01T07:27:16.928Z,92.76
2018-07-01T07:28:16.946Z,91.89
2018-07-01T07:29:16.964Z,91.75
2018-07-01T07:30:16.976Z,91.79
2018-07-01T07:31:16.998Z,91.89
2018-07-01T07:32:17.050Z,90.78
2018-07-01T07:33:17.038Z,90.53
2018-07-01T07:34:17.055Z,90.00
2018-07-01T07:35:17.073Z,89.81
2018-07-01T07:36:17.086Z,89.14
2018-07-01T07:37:17.102Z,90.24
2018-07-01T07:38:17.124Z,90.10
2018-07-01T07:39:17.141Z,90.30
2018-07-01T07:40:17.162Z,90.10
2018-07-01T07:41:17.179Z,90.10
2018-07-01T07:42:17.213Z,90.58
2018-07-01T07:43:17.217Z,90.68
2018-07-01T07:44:17.239Z,90.10
2018-07-01T07:45:17.288Z,89.91
2018-07-01T07:46:17.267Z,90.20
2018-07-01T07:47:17.291Z,89.47
2018-07-01T07:48:17.303Z,88.07
2018-07-01T07:49:17.330Z,87.40
2018-07-01T07:50:17.349Z,87.44
2018-07-01T07:51:17.363Z,86.47
2018-07-01T07:52:17.435Z,85.74
2018-07-01T07:53:17.403Z,86.42
2018-07-01T07:54:17.419Z,85.11
2018-07-01T07:55:17.433Z,83.85
2018-07-01T07:56:17.456Z,84.20
2018-07-01T07:57:17.510Z,86.52
2018-07-01T07:58:17.489Z,87.26
2018-07-01T07:59:17.507Z,88.41
2018-07-01T08:00:17.528Z,88.07
2018-07-01T08:01:17.546Z,86.66
2018-07-01T08:02:17.570Z,86.57
2018-07-01T08:03:17.637Z,86.47
2018-07-01T08:04:17.606Z,86.08
2018-07-01T08:05:17.620Z,86.86
2018-07-01T08:06:17.644Z,86.28
2018-07-01T08:07:17.692Z,86.22
2018-07-01T08:08:17.678Z,85.84
2018-07-01T08:09:17.723Z,85.16
2018-07-01T08:10:17.720Z,84.53
2018-07-01T08:11:17.735Z,83.75
2018-07-01T08:12:17.757Z,84.14
2018-07-01T08:13:17.777Z,84.72
2018-07-01T08:14:17.796Z,84.83
2018-07-01T08:15:17.812Z,85.80
2018-07-01T08:16:17.836Z,85.12
2018-07-01T08:17:17.856Z,85.89
2018-07-01T08:18:17.870Z,85.12
2018-07-01T08:19:17.891Z,84.78
2018-07-01T08:20:17.914Z,85.06
2018-07-01T08:21:17.925Z,85.80
2018-07-01T08:22:17.948Z,85.56
2018-07-01T08:23:17.965Z,87.30
2018-07-01T08:24:17.989Z,89.04
2018-07-01T08:25:18.003Z,89.62
2018-07-01T08:26:18.022Z,90.10
2018-07-01T08:27:18.045Z,89.72
2018-07-01T08:28:18.143Z,88.45
2018-07-01T08:29:18.079Z,86.66
2018-07-01T08:30:18.102Z,85.50
2018-07-01T08:31:18.115Z,86.62
2018-07-01T08:32:18.135Z,87.45
2018-07-01T08:33:18.153Z,87.16
2018-07-01T08:34:18.224Z,88.89
2018-07-01T08:35:18.197Z,87.63
2018-07-01T08:36:18.217Z,87.73
2018-07-01T08:37:18.233Z,85.74
2018-07-01T08:38:18.247Z,85.26
2018-07-01T08:39:18.267Z,85.26
2018-07-01T08:40:18.334Z,84.38
2018-07-01T08:41:18.332Z,82.87
2018-07-01T08:42:18.326Z,80.79
2018-07-01T08:43:18.342Z,80.15
2018-07-01T08:44:18.361Z,79.85
2018-07-01T08:45:18.382Z,81.48
2018-07-01T08:46:18.451Z,82.60
2018-07-01T08:47:18.420Z,83.75
2018-07-01T08:48:18.439Z,84.33
2018-07-01T08:49:18.457Z,85.45
2018-07-01T08:50:18.477Z,85.99
2018-07-01T08:51:18.498Z,87.64
2018-07-01T08:52:18.583Z,88.70
2018-07-01T08:53:18.542Z,88.60
2018-07-01T08:54:18.562Z,87.64
2018-07-01T08:55:18.582Z,87.45
2018-07-01T08:56:18.595Z,88.22
2018-07-01T08:57:18.616Z,88.37
2018-07-01T08:58:18.635Z,87.40
2018-07-01T08:59:18.688Z,86.66
2018-07-01T09:00:18.671Z,85.49
2018-07-01T09:01:18.689Z,84.14
2018-07-01T09:02:18.710Z,83.03
2018-07-01T09:03:18.728Z,82.69
2018-07-01T09:04:18.745Z,84.88
2018-07-01T09:05:18.771Z,85.01
2018-07-01T09:06:18.790Z,84.28
2018-07-01T09:07:18.811Z,82.93
2018-07-01T09:08:18.822Z,82.45
2018-07-01T09:09:18.846Z,84.06
2018-07-01T09:10:18.864Z,85.12
2018-07-01T09:11:18.910Z,85.08
2018-07-01T09:12:18.903Z,86.62
2018-07-01T09:13:18.918Z,86.77
2018-07-01T09:14:18.941Z,88.60
2018-07-01T09:15:18.957Z,86.76
2018-07-01T09:16:18.980Z,86.28
2018-07-01T09:17:19.012Z,85.08
2018-07-01T09:18:19.014Z,85.22
2018-07-01T09:19:19.039Z,84.58
2018-07-01T09:20:19.059Z,84.74
2018-07-01T09:21:19.074Z,84.68
2018-07-01T09:22:19.090Z,84.88
2018-07-01T09:23:19.113Z,85.31
2018-07-01T09:24:19.133Z,86.14
2018-07-01T09:25:19.147Z,86.87
2018-07-01T09:26:19.173Z,87.93
2018-07-01T09:27:19.183Z,88.46
2018-07-01T09:28:19.211Z,89.04
2018-07-01T09:29:19.226Z,87.16
2018-07-01T09:30:19.319Z,85.99
2018-07-01T09:31:19.265Z,86.08
2018-07-01T09:32:19.284Z,85.45
2018-07-01T09:33:19.304Z,83.47
2018-07-01T09:34:19.335Z,81.87
2018-07-01T09:35:19.336Z,81.96
2018-07-01T09:36:19.439Z,82.94
2018-07-01T09:37:19.379Z,83.92
2018-07-01T09:38:19.394Z,84.46
2018-07-01T09:39:19.418Z,85.81
2018-07-01T09:40:19.432Z,85.81
2018-07-01T09:41:19.451Z,85.75
2018-07-01T09:42:19.476Z,84.74
2018-07-01T09:43:19.549Z,83.37
2018-07-01T09:44:19.508Z,82.64
2018-07-01T09:45:19.531Z,82.15
2018-07-01T09:46:19.546Z,81.71
2018-07-01T09:47:19.566Z,81.13
2018-07-01T09:48:19.585Z,80.99
2018-07-01T09:49:19.606Z,81.44
2018-07-01T09:50:19.640Z,81.63
2018-07-01T09:51:19.645Z,81.92
2018-07-01T09:52:19.661Z,81.71
2018-07-01T09:53:19.688Z,80.79
2018-07-01T09:54:19.857Z,78.44
2018-07-01T09:55:19.726Z,76.97
2018-07-01T09:56:19.745Z,76.48
2018-07-01T09:57:19.759Z,77.63
2018-07-01T09:58:19.781Z,79.14
2018-07-01T09:59:19.800Z,80.51
2018-07-01T10:00:19.821Z,81.73
2018-07-01T10:01:19.862Z,82.46
2018-07-01T10:02:19.865Z,83.52
2018-07-01T10:03:19.885Z,83.81
2018-07-01T10:04:19.902Z,82.75
2018-07-01T10:05:19.920Z,83.81
2018-07-01T10:06:19.939Z,83.81
2018-07-01T10:07:19.963Z,85.02
2018-07-01T10:08:19.980Z,87.06
2018-07-01T10:09:19.996Z,86.52
2018-07-01T10:10:20.017Z,85.41
2018-07-01T10:11:20.038Z,86.14
2018-07-01T10:12:20.059Z,85.12
2018-07-01T10:13:20.078Z,84.06
2018-07-01T10:14:20.150Z,84.50
2018-07-01T10:15:20.121Z,84.35
2018-07-01T10:16:20.139Z,83.48
2018-07-01T10:17:20.154Z,81.92
2018-07-01T10:18:20.173Z,82.11
2018-07-01T10:19:20.200Z,80.66
2018-07-01T10:20:20.247Z,79.87
2018-07-01T10:21:20.234Z,78.56
2018-07-01T10:22:20.254Z,78.00
2018-07-01T10:23:20.268Z,80.03
2018-07-01T10:24:20.291Z,78.87
2018-07-01T10:25:20.307Z,79.49
2018-07-01T10:26:20.330Z,79.64
2018-07-01T10:27:20.347Z,79.54
2018-07-01T10:28:20.372Z,77.40
2018-07-01T10:29:20.385Z,77.14
2018-07-01T10:30:20.407Z,76.76
2018-07-01T10:31:20.425Z,75.92
2018-07-01T10:32:20.519Z,76.60
2018-07-01T10:33:20.466Z,75.54
2018-07-01T10:34:20.489Z,76.37
2018-07-01T10:35:20.504Z,76.37
2018-07-01T10:36:20.526Z,78.81
2018-07-01T10:37:20.550Z,81.40
2018-07-01T10:38:20.565Z,81.24
2018-07-01T10:39:20.593Z,80.32
2018-07-01T10:40:20.645Z,78.56
2018-07-01T10:41:20.624Z,77.78
2018-07-01T10:42:20.652Z,78.08
2018-07-01T10:43:20.667Z,77.34
2018-07-01T10:44:20.690Z,76.37
2018-07-01T10:45:20.706Z,76.28
2018-07-01T10:46:20.732Z,73.85
2018-07-01T10:47:20.746Z,74.15
2018-07-01T10:48:20.768Z,74.69
2018-07-01T10:49:20.790Z,74.76
2018-07-01T10:50:20.810Z,74.18
2018-07-01T10:51:20.900Z,75.07
2018-07-01T10:52:20.851Z,77.51
2018-07-01T10:53:20.871Z,77.20
2018-07-01T10:54:20.890Z,77.50
2018-07-01T10:55:20.913Z,76.56
2018-07-01T10:56:20.928Z,74.12
2018-07-01T10:57:20.960Z,72.83
2018-07-01T10:58:20.975Z,71.99
2018-07-01T10:59:20.993Z,75.98
2018-07-01T11:00:21.016Z,74.05
2018-07-01T11:01:21.031Z,75.95
2018-07-01T11:02:21.055Z,74.18
2018-07-01T11:03:21.077Z,75.44
2018-07-01T11:04:21.099Z,73.89
2018-07-01T11:05:21.113Z,75.95
2018-07-01T11:06:21.209Z,76.78
2018-07-01T11:07:21.159Z,76.62
2018-07-01T11:08:21.178Z,77.11
2018-07-01T11:09:21.198Z,76.33
2018-07-01T11:10:21.219Z,75.89
2018-07-01T11:11:21.238Z,75.24
2018-07-01T11:12:21.264Z,75.34
2018-07-01T11:13:21.278Z,73.82
2018-07-01T11:14:21.297Z,78.73
2018-07-01T11:15:21.318Z,79.31
2018-07-01T11:16:21.343Z,79.12
2018-07-01T11:17:21.358Z,79.06
2018-07-01T11:18:21.383Z,79.54
2018-07-01T11:19:21.402Z,79.16
2018-07-01T11:20:21.454Z,78.64
2018-07-01T11:21:21.440Z,80.95
2018-07-01T11:22:21.463Z,80.08
2018-07-01T11:23:21.482Z,81.15
2018-07-01T11:24:21.502Z,81.49
2018-07-01T11:25:21.518Z,81.63
2018-07-01T11:26:21.542Z,82.94
2018-07-01T11:27:21.631Z,82.11
2018-07-01T11:28:21.623Z,82.75
2018-07-01T11:29:21.598Z,82.11
2018-07-01T11:30:21.621Z,80.51
2018-07-01T11:31:21.638Z,79.99
2018-07-01T11:32:21.662Z,80.86
2018-07-01T11:33:21.675Z,79.16
2018-07-01T11:34:21.780Z,80.12
2018-07-01T11:35:21.821Z,80.12
2018-07-01T11:36:21.736Z,80.30
2018-07-01T11:37:21.754Z,78.56
2018-07-01T11:38:21.774Z,77.63
2018-07-01T11:39:21.794Z,77.09
2018-07-01T11:40:21.847Z,76.87
2018-07-01T11:41:21.836Z,79.06
2018-07-01T11:42:21.852Z,80.32
2018-07-01T11:43:21.875Z,80.11
2018-07-01T11:44:21.902Z,76.89
2018-07-01T11:45:21.915Z,74.82
2018-07-01T11:46:21.931Z,75.40
2018-07-01T11:47:21.951Z,76.62
2018-07-01T11:48:22.032Z,77.84
2018-07-01T11:49:22.009Z,80.61
2018-07-01T11:50:22.012Z,80.90
2018-07-01T11:51:22.037Z,79.91
2018-07-01T11:52:22.091Z,77.73
2018-07-01T11:53:22.071Z,76.99
2018-07-01T11:54:22.142Z,75.42
2018-07-01T11:55:22.114Z,76.86
2018-07-01T11:56:22.136Z,77.73
2018-07-01T11:57:22.156Z,77.11
2018-07-01T11:58:22.171Z,79.14
2018-07-01T11:59:22.196Z,79.91
2018-07-01T12:00:22.266Z,77.73
2018-07-01T12:01:22.241Z,78.66
2018-07-01T12:02:22.252Z,78.41
2018-07-01T12:03:22.273Z,78.41
2018-07-01T12:04:22.317Z,77.86
2018-07-01T12:05:22.338Z,77.78
2018-07-01T12:06:22.339Z,78.44
2018-07-01T12:07:22.353Z,76.46
2018-07-01T12:08:22.379Z,75.77
2018-07-01T12:09:22.396Z,75.48
2018-07-01T12:10:22.435Z,75.38
2018-07-01T12:11:22.441Z,76.95
2018-07-01T12:12:22.457Z,76.64
2018-07-01T12:13:22.526Z,75.13
2018-07-01T12:14:22.497Z,73.64
2018-07-01T12:15:22.518Z,75.19
2018-07-01T12:16:22.540Z,75.03
2018-07-01T12:17:22.565Z,75.28
2018-07-01T12:18:22.586Z,74.60
2018-07-01T12:19:22.607Z,73.89
2018-07-01T12:20:22.631Z,75.75
2018-07-01T12:21:22.641Z,76.43
2018-07-01T12:22:22.666Z,76.28
2018-07-01T12:23:22.731Z,75.05
2018-07-01T12:24:22.706Z,74.51
2018-07-01T12:25:22.728Z,74.80
2018-07-01T12:26:22.751Z,76.33
2018-07-01T12:27:22.767Z,77.59
2018-07-01T12:28:22.792Z,76.91
2018-07-01T12:29:22.816Z,77.01
2018-07-01T12:30:22.884Z,77.14
2018-07-01T12:31:22.852Z,76.37
2018-07-01T12:32:22.871Z,75.89
2018-07-01T12:33:22.916Z,75.34
2018-07-01T12:34:22.916Z,73.35
2018-07-01T12:35:22.932Z,71.64
2018-07-01T12:36:23.026Z,72.15
2018-07-01T12:37:22.974Z,72.89
2018-07-01T12:38:23.000Z,72.96
2018-07-01T12:39:23.020Z,71.38
2018-07-01T12:40:23.042Z,70.83
2018-07-01T12:41:23.058Z,72.92
2018-07-01T12:42:23.287Z,73.27
2018-07-01T12:43:23.104Z,74.43
2018-07-01T12:44:23.119Z,73.64
2018-07-01T12:45:23.146Z,73.66
2018-07-01T12:46:23.166Z,75.95
2018-07-01T12:47:23.189Z,76.53
2018-07-01T12:48:23.204Z,76.78
2018-07-01T12:49:23.227Z,76.86
2018-07-01T12:50:23.250Z,75.31
2018-07-01T12:51:23.267Z,75.89
2018-07-01T12:52:23.291Z,73.64
2018-07-01T12:53:23.307Z,72.73
2018-07-01T12:54:23.382Z,75.85
2018-07-01T12:55:23.353Z,76.66